Time;durP1;ratioP1;P1;durP2;ratioP2;P2;SDS_P1;SDS_P2;PMS_P1;PMS_P2;Temp;Humidity;BMP_temperature;BMP_pressure;BME280_temperature;BME280_humidity;BME280_pressure;Samples;Min_cycle;Max_cycle;Signal;HPM_P1;HPM_P2
2023/12/15 00:00:00;;;;;;;29.58;4.95;;;;;;;-144.57;100.00;62443.72;5032999;28;20140;-63
2023/12/15 00:02:27;;;;;;;12.98;4.60;;;;;;;-144.57;100.00;62443.72;5032751;28;20045;-62
2023/12/15 00:04:52;;;;;;;14.68;5.00;;;;;;;-144.57;100.00;62443.72;5014827;28;20046;-62
2023/12/15 00:07:18;;;;;;;12.63;4.55;;;;;;;-144.57;100.00;62443.72;5030359;28;20052;-62
2023/12/15 00:09:44;;;;;;;13.25;4.55;;;;;;;-144.57;100.00;62443.72;5032479;28;20037;-63
2023/12/15 00:12:10;;;;;;;17.50;5.68;;;;;;;-144.57;100.00;62443.72;5032751;28;20033;-63
2023/12/15 00:14:35;;;;;;;13.70;5.20;;;;;;;-144.57;100.00;62443.72;5032453;28;20041;-62
2023/12/15 00:17:02;;;;;;;19.50;4.75;;;;;;;-144.57;100.00;62443.72;5013029;28;20414;-61
2023/12/15 00:19:28;;;;;;;16.48;4.72;;;;;;;-144.57;100.00;62443.72;5032162;28;20110;-63
2023/12/15 00:21:54;;;;;;;19.13;4.72;;;;;;;-144.57;100.00;62443.72;4999148;28;20085;-62
2023/12/15 00:24:20;;;;;;;18.55;6.10;;;;;;;-144.57;100.00;62443.72;5027812;28;20054;-63
2023/12/15 00:26:45;;;;;;;15.82;5.10;;;;;;;-144.57;100.00;62443.72;5012635;28;20141;-62
2023/12/15 00:29:11;;;;;;;17.00;5.93;;;;;;;-144.57;100.00;62443.72;4995134;28;20041;-62
2023/12/15 00:31:37;;;;;;;12.68;4.15;;;;;;;-144.57;100.00;62443.72;5012462;28;20129;-62
2023/12/15 00:34:03;;;;;;;14.32;5.82;;;;;;;-144.57;100.00;62443.72;5012802;28;20555;-61
2023/12/15 00:36:29;;;;;;;23.05;5.03;;;;;;;-144.57;100.00;62443.72;5012341;28;20060;-63
2023/12/15 00:38:54;;;;;;;19.08;5.68;;;;;;;-144.57;100.00;62443.72;5012628;28;20475;-62
2023/12/15 00:41:21;;;;;;;16.35;6.07;;;;;;;-144.57;100.00;62443.72;4978893;28;20075;-63
2023/12/15 00:43:46;;;;;;;21.67;5.75;;;;;;;-144.57;100.00;62443.72;4994655;28;20606;-62
2023/12/15 00:46:12;;;;;;;14.65;4.70;;;;;;;-144.57;100.00;62443.72;5012206;28;20049;-63
2023/12/15 00:48:38;;;;;;;20.45;6.53;;;;;;;-144.57;100.00;62443.72;5012401;28;20100;-61
2023/12/15 00:51:05;;;;;;;18.73;5.25;;;;;;;-144.57;100.00;62443.72;4994832;28;20073;-63
2023/12/15 00:53:32;;;;;;;9.27;4.80;;;;;;;-144.57;100.00;62443.72;4978294;28;20467;-61
2023/12/15 00:56:01;;;;;;;13.30;4.65;;;;;;;-144.57;100.00;62443.72;4994704;28;20060;-62
2023/12/15 00:58:27;;;;;;;22.20;6.30;;;;;;;-144.57;100.00;62443.72;4995279;28;20060;-62
2023/12/15 01:00:53;;;;;;;18.92;4.88;;;;;;;-144.57;100.00;62443.72;5031612;28;20503;-63
2023/12/15 01:03:19;;;;;;;6.13;3.38;;;;;;;-144.57;100.00;62443.72;4997482;28;20041;-62
2023/12/15 01:05:45;;;;;;;22.58;5.65;;;;;;;-144.57;100.00;62443.72;5013960;28;20079;-63
2023/12/15 01:08:10;;;;;;;18.88;4.75;;;;;;;-144.57;100.00;62443.72;5031502;28;20046;-62
2023/12/15 01:10:36;;;;;;;18.42;4.57;;;;;;;-144.57;100.00;62443.72;5031401;28;20084;-64
2023/12/15 01:13:02;;;;;;;16.58;4.20;;;;;;;-144.57;100.00;62443.72;5031465;28;20415;-62
2023/12/15 01:15:28;;;;;;;22.60;5.45;;;;;;;-144.57;100.00;62443.72;5013911;28;20525;-62
2023/12/15 01:17:53;;;;;;;23.85;5.55;;;;;;;-144.57;100.00;62443.72;5030561;28;20407;-62
2023/12/15 01:20:19;;;;;;;17.95;5.53;;;;;;;-144.57;100.00;62443.72;5031424;28;20045;-63
2023/12/15 01:22:45;;;;;;;15.63;5.13;;;;;;;-144.57;100.00;62443.72;5013702;28;20577;-63
2023/12/15 01:25:11;;;;;;;25.08;5.43;;;;;;;-144.57;100.00;62443.72;5013972;28;20049;-63
2023/12/15 01:27:38;;;;;;;14.82;5.38;;;;;;;-144.57;100.00;62443.72;5031170;28;20103;-62
2023/12/15 01:30:04;;;;;;;17.23;4.43;;;;;;;-144.57;100.00;62443.72;4997582;28;20045;-63
2023/12/15 01:32:30;;;;;;;23.80;4.63;;;;;;;-144.57;100.00;62443.72;5031187;28;20038;-62
2023/12/15 01:34:56;;;;;;;22.25;4.90;;;;;;;-144.57;100.00;62443.72;5031182;28;20045;-64
2023/12/15 01:37:22;;;;;;;13.50;4.22;;;;;;;-144.57;100.00;62443.72;5031347;28;20484;-62
2023/12/15 01:39:48;;;;;;;24.35;5.90;;;;;;;-144.57;100.00;62443.72;5030946;28;20056;-62
2023/12/15 01:42:13;;;;;;;18.77;4.95;;;;;;;-144.57;100.00;62443.72;5031137;28;20045;-62
2023/12/15 01:44:40;;;;;;;23.30;5.68;;;;;;;-144.57;100.00;62443.72;5013245;28;20041;-62
2023/12/15 01:47:07;;;;;;;24.33;5.57;;;;;;;-144.57;100.00;62443.72;5013405;28;20041;-62
2023/12/15 01:49:33;;;;;;;21.60;4.07;;;;;;;-144.57;100.00;62443.72;5013626;28;20045;-62
2023/12/15 01:51:59;;;;;;;21.00;5.50;;;;;;;-144.57;100.00;62443.72;4978868;28;20056;-63
2023/12/15 01:54:24;;;;;;;15.30;6.20;;;;;;;-144.57;100.00;62443.72;5013678;28;20380;-64
2023/12/15 01:56:50;;;;;;;23.63;5.57;;;;;;;-144.57;100.00;62443.72;5030230;28;20081;-63
2023/12/15 01:59:16;;;;;;;19.83;5.25;;;;;;;-144.57;100.00;62443.72;4996956;28;20103;-62
2023/12/15 02:01:42;;;;;;;22.48;4.78;;;;;;;-144.57;100.00;62443.72;5013065;28;20045;-64
2023/12/15 02:04:07;;;;;;;19.55;5.22;;;;;;;-144.57;100.00;62443.72;5031315;28;20495;-62
2023/12/15 02:06:33;;;;;;;18.13;5.00;;;;;;;-144.57;100.00;62443.72;5013264;28;20095;-63
2023/12/15 02:08:59;;;;;;;13.98;4.60;;;;;;;-144.57;100.00;62443.72;5031023;28;20042;-62
2023/12/15 02:11:25;;;;;;;14.40;4.55;;;;;;;-144.57;100.00;62443.72;5013646;28;20049;-61
2023/12/15 02:13:51;;;;;;;18.42;5.13;;;;;;;-144.57;100.00;62443.72;5013139;28;20033;-61
2023/12/15 02:16:16;;;;;;;19.38;5.55;;;;;;;-144.57;100.00;62443.72;5038543;28;20049;-63
2023/12/15 02:18:42;;;;;;;15.20;4.38;;;;;;;-144.57;100.00;62443.72;5051083;28;20123;-62
2023/12/15 02:21:08;;;;;;;19.25;5.13;;;;;;;-144.57;100.00;62443.72;5050714;28;20060;-62
2023/12/15 02:23:34;;;;;;;18.15;5.80;;;;;;;-144.57;100.00;62443.72;5050879;28;20096;-62
2023/12/15 02:25:59;;;;;;;17.92;5.80;;;;;;;-144.57;100.00;62443.72;5050956;28;20133;-62
2023/12/15 02:28:25;;;;;;;26.48;6.35;;;;;;;-144.57;100.00;62443.72;5030177;28;20088;-62
2023/12/15 02:30:51;;;;;;;19.02;4.90;;;;;;;-144.57;100.00;62443.72;5034391;28;20045;-64
2023/12/15 02:33:17;;;;;;;21.70;4.57;;;;;;;-144.57;100.00;62443.72;5034557;28;20045;-62
2023/12/15 02:35:43;;;;;;;21.65;4.95;;;;;;;-144.57;100.00;62443.72;5034794;28;20119;-62
2023/12/15 02:38:09;;;;;;;20.23;5.25;;;;;;;-144.57;100.00;62443.72;5034316;28;20056;-65
2023/12/15 02:40:35;;;;;;;18.67;5.07;;;;;;;-144.57;100.00;62443.72;5033039;28;20045;-62
2023/12/15 02:43:01;;;;;;;15.80;4.90;;;;;;;-144.57;100.00;62443.72;5016463;28;20048;-62
2023/12/15 02:45:27;;;;;;;16.65;4.72;;;;;;;-144.57;100.00;62443.72;5032947;28;20038;-62
2023/12/15 02:47:53;;;;;;;28.73;5.97;;;;;;;-144.57;100.00;62443.72;5034231;28;20176;-62
2023/12/15 02:50:19;;;;;;;26.40;6.00;;;;;;;-144.57;100.00;62443.72;5034287;28;20415;-63
2023/12/15 02:52:44;;;;;;;15.10;4.50;;;;;;;-144.57;100.00;62443.72;5032878;28;20056;-62
2023/12/15 02:55:13;;;;;;;15.98;4.60;;;;;;;-144.57;100.00;62443.72;5033068;28;20037;-63
2023/12/15 02:57:39;;;;;;;20.52;5.25;;;;;;;-144.57;100.00;62443.72;5032727;28;20478;-62
2023/12/15 03:00:06;;;;;;;19.83;5.55;;;;;;;-144.57;100.00;62443.72;5019758;28;20128;-63
2023/12/15 03:02:32;;;;;;;23.60;5.57;;;;;;;-144.57;100.00;62443.72;5014065;28;20092;-62
2023/12/15 03:04:59;;;;;;;19.92;5.85;;;;;;;-144.57;100.00;62443.72;5014284;28;20100;-62
2023/12/15 03:07:24;;;;;;;15.27;4.47;;;;;;;-144.57;100.00;62443.72;5013904;28;20443;-62
2023/12/15 03:09:50;;;;;;;15.38;5.25;;;;;;;-144.57;100.00;62443.72;5013790;28;20507;-63
2023/12/15 03:12:16;;;;;;;23.70;5.57;;;;;;;-144.57;100.00;62443.72;5014130;28;20053;-62
2023/12/15 03:14:42;;;;;;;15.43;5.15;;;;;;;-144.57;100.00;62443.72;5014020;28;20050;-62
2023/12/15 03:17:07;;;;;;;16.00;5.75;;;;;;;-144.57;100.00;62443.72;5013814;28;20059;-62
2023/12/15 03:19:33;;;;;;;12.50;4.57;;;;;;;-144.57;100.00;62443.72;5013763;28;20056;-62
2023/12/15 03:21:59;;;;;;;21.30;5.93;;;;;;;-144.57;100.00;62443.72;5012396;28;20042;-62
2023/12/15 03:24:25;;;;;;;19.70;6.10;;;;;;;-144.57;100.00;62443.72;5013809;28;20042;-62
2023/12/15 03:26:50;;;;;;;21.33;6.72;;;;;;;-144.57;100.00;62443.72;5017054;28;20053;-61
2023/12/15 03:29:16;;;;;;;22.23;6.20;;;;;;;-144.57;100.00;62443.72;5033764;28;20057;-62
2023/12/15 03:31:42;;;;;;;20.98;6.07;;;;;;;-144.57;100.00;62443.72;5033257;28;20046;-62
2023/12/15 03:34:08;;;;;;;25.67;6.05;;;;;;;-144.57;100.00;62443.72;5033559;28;20045;-63
2023/12/15 03:36:38;;;;;;;23.30;6.28;;;;;;;-144.57;100.00;62443.72;5033295;28;20056;-63
2023/12/15 03:39:05;;;;;;;22.95;5.25;;;;;;;-144.57;100.00;62443.72;5033616;28;20554;-62
2023/12/15 03:41:32;;;;;;;17.17;5.95;;;;;;;-144.57;100.00;62443.72;5032365;28;20116;-62
2023/12/15 03:43:58;;;;;;;21.88;6.18;;;;;;;-144.57;100.00;62443.72;5033349;28;20042;-62
2023/12/15 03:46:24;;;;;;;15.52;6.22;;;;;;;-144.57;100.00;62443.72;5033017;28;20042;-62
2023/12/15 03:48:50;;;;;;;15.93;5.35;;;;;;;-144.57;100.00;62443.72;5033193;28;20120;-62
2023/12/15 03:51:15;;;;;;;20.63;5.70;;;;;;;-144.57;100.00;62443.72;5032832;28;20057;-64
2023/12/15 03:53:41;;;;;;;30.25;7.10;;;;;;;-144.57;100.00;62443.72;5033019;28;20049;-63
2023/12/15 03:56:09;;;;;;;20.35;6.25;;;;;;;-144.57;100.00;62443.72;5033030;28;20499;-63
2023/12/15 03:58:35;;;;;;;16.75;5.80;;;;;;;-144.57;100.00;62443.72;5032761;28;20467;-63
2023/12/15 04:01:01;;;;;;;14.43;5.00;;;;;;;-144.57;100.00;62443.72;5032406;28;20107;-63
2023/12/15 04:03:27;;;;;;;23.45;5.82;;;;;;;-144.57;100.00;62443.72;5032289;28;20087;-63
2023/12/15 04:05:53;;;;;;;20.10;6.28;;;;;;;-144.57;100.00;62443.72;5032528;28;20057;-62
2023/12/15 04:08:19;;;;;;;18.17;6.28;;;;;;;-144.57;100.00;62443.72;5032443;28;20045;-62
2023/12/15 04:10:45;;;;;;;21.73;6.72;;;;;;;-144.57;100.00;62443.72;5032320;28;20048;-63
2023/12/15 04:13:11;;;;;;;18.05;6.88;;;;;;;-144.57;100.00;62443.72;5014646;28;20045;-61
2023/12/15 04:15:38;;;;;;;29.92;6.70;;;;;;;-144.57;100.00;62443.72;5032275;28;20095;-61
2023/12/15 04:18:04;;;;;;;25.48;6.55;;;;;;;-144.57;100.00;62443.72;5032445;28;20103;-63
2023/12/15 04:20:30;;;;;;;21.80;6.35;;;;;;;-144.57;100.00;62443.72;5032171;28;20069;-62
2023/12/15 04:22:57;;;;;;;22.98;6.47;;;;;;;-144.57;100.00;62443.72;5032508;28;20041;-62
2023/12/15 04:25:22;;;;;;;21.52;6.13;;;;;;;-144.57;100.00;62443.72;5032472;28;20407;-64
2023/12/15 04:27:48;;;;;;;20.52;6.40;;;;;;;-144.57;100.00;62443.72;5014437;28;20049;-60
2023/12/15 04:30:14;;;;;;;30.58;7.25;;;;;;;-144.57;100.00;62443.72;5032243;28;20049;-63
2023/12/15 04:32:40;;;;;;;28.15;7.50;;;;;;;-144.57;100.00;62443.72;5032012;28;20056;-63
2023/12/15 04:35:06;;;;;;;21.23;7.63;;;;;;;-144.57;100.00;62443.72;5031969;28;20042;-61
2023/12/15 04:37:32;;;;;;;18.73;7.47;;;;;;;-144.57;100.00;62443.72;4997444;28;20415;-62
2023/12/15 04:39:57;;;;;;;20.52;7.50;;;;;;;-144.57;100.00;62443.72;5031654;28;20065;-63
2023/12/15 04:42:23;;;;;;;21.73;6.90;;;;;;;-144.57;100.00;62443.72;5014044;28;20045;-62
2023/12/15 04:44:49;;;;;;;20.88;7.30;;;;;;;-144.57;100.00;62443.72;5031838;28;20037;-64
2023/12/15 04:47:15;;;;;;;24.15;6.72;;;;;;;-144.57;100.00;62443.72;5031721;28;20175;-63
2023/12/15 04:49:41;;;;;;;28.30;7.32;;;;;;;-144.57;100.00;62443.72;4997580;28;20045;-63
2023/12/15 04:52:07;;;;;;;17.02;6.95;;;;;;;-144.57;100.00;62443.72;5007465;28;20449;-63
2023/12/15 04:54:33;;;;;;;27.90;7.25;;;;;;;-144.57;100.00;62443.72;5023874;28;20045;-62
2023/12/15 04:56:58;;;;;;;17.02;6.78;;;;;;;-144.57;100.00;62443.72;5031479;28;20517;-62
2023/12/15 04:59:24;;;;;;;18.23;5.78;;;;;;;-144.57;100.00;62443.72;5021975;28;20076;-63
2023/12/15 05:01:50;;;;;;;20.13;6.88;;;;;;;-144.57;100.00;62443.72;5013971;28;20041;-63
2023/12/15 05:04:16;;;;;;;18.15;7.10;;;;;;;-144.57;100.00;62443.72;5032285;28;20050;-63
2023/12/15 05:06:42;;;;;;;20.52;6.28;;;;;;;-144.57;100.00;62443.72;5014102;28;20478;-64
2023/12/15 05:09:08;;;;;;;27.65;8.23;;;;;;;-144.57;100.00;62443.72;5014281;28;20447;-62
2023/12/15 05:11:35;;;;;;;30.48;7.78;;;;;;;-144.57;100.00;62443.72;5031945;28;20071;-63
2023/12/15 05:14:01;;;;;;;18.17;7.72;;;;;;;-144.57;100.00;62443.72;5040888;28;20087;-63
2023/12/15 05:16:29;;;;;;;20.20;6.28;;;;;;;-144.57;100.00;62443.72;5013918;28;20045;-63
2023/12/15 05:18:55;;;;;;;25.63;7.65;;;;;;;-144.57;100.00;62443.72;5030883;28;20422;-62
2023/12/15 05:21:20;;;;;;;31.42;8.25;;;;;;;-144.57;100.00;62443.72;5031582;28;20132;-63
2023/12/15 05:23:46;;;;;;;26.83;8.75;;;;;;;-144.57;100.00;62443.72;5032300;28;20077;-63
2023/12/15 05:26:12;;;;;;;28.00;7.82;;;;;;;-144.57;100.00;62443.72;5032733;28;20104;-62
2023/12/15 05:28:38;;;;;;;16.42;6.45;;;;;;;-144.57;100.00;62443.72;5031531;28;20081;-62
2023/12/15 05:31:04;;;;;;;25.67;7.15;;;;;;;-144.57;100.00;62443.72;5031680;28;20042;-61
2023/12/15 05:33:30;;;;;;;17.52;6.78;;;;;;;-144.57;100.00;62443.72;5031174;28;20454;-58
2023/12/15 05:35:55;;;;;;;23.45;7.60;;;;;;;-144.57;100.00;62443.72;5031465;28;20048;-62
2023/12/15 05:38:21;;;;;;;18.83;6.78;;;;;;;-144.57;100.00;62443.72;5013675;28;20072;-60
2023/12/15 05:40:47;;;;;;;21.73;7.80;;;;;;;-144.57;100.00;62443.72;4997438;28;20041;-61
2023/12/15 05:43:13;;;;;;;29.98;7.13;;;;;;;-144.57;100.00;62443.72;5031513;28;20060;-61
2023/12/15 05:45:39;;;;;;;29.48;8.18;;;;;;;-144.57;100.00;62443.72;5013630;28;20041;-62
2023/12/15 05:48:05;;;;;;;23.38;8.23;;;;;;;-144.57;100.00;62443.72;5012158;28;20578;-63
2023/12/15 05:50:31;;;;;;;20.90;7.70;;;;;;;-144.57;100.00;62443.72;5011397;28;20045;-60
2023/12/15 05:52:56;;;;;;;24.90;7.18;;;;;;;-144.57;100.00;62443.72;5030185;28;20379;-62
2023/12/15 05:55:22;;;;;;;26.13;7.75;;;;;;;-144.57;100.00;62443.72;5030261;28;20192;-62
2023/12/15 05:57:48;;;;;;;29.02;7.20;;;;;;;-144.57;100.00;62443.72;5028010;28;20038;-61
2023/12/15 06:00:14;;;;;;;22.83;6.60;;;;;;;-144.57;100.00;62443.72;5030569;28;20140;-64
2023/12/15 06:02:40;;;;;;;23.00;7.32;;;;;;;-144.57;100.00;62443.72;5030462;28;20498;-61
2023/12/15 06:05:06;;;;;;;23.23;6.55;;;;;;;-144.57;100.00;62443.72;5034419;28;20053;-63
2023/12/15 06:07:33;;;;;;;24.50;7.25;;;;;;;-144.57;100.00;62443.72;5027770;28;20041;-61
2023/12/15 06:10:00;;;;;;;23.33;7.43;;;;;;;-144.57;100.00;62443.72;5033127;28;20041;-62
2023/12/15 06:12:26;;;;;;;24.25;7.70;;;;;;;-144.57;100.00;62443.72;5014882;28;20152;-61
2023/12/15 06:14:51;;;;;;;24.75;8.85;;;;;;;-144.57;100.00;62443.72;5017341;28;20125;-60
2023/12/15 06:17:17;;;;;;;29.33;8.43;;;;;;;-144.57;100.00;62443.72;5034033;28;20132;-58
2023/12/15 06:19:43;;;;;;;22.33;7.88;;;;;;;-144.57;100.00;62443.72;5008250;28;20053;-59
2023/12/15 06:22:09;;;;;;;23.73;8.30;;;;;;;-144.57;100.00;62443.72;5021316;28;20384;-60
2023/12/15 06:24:35;;;;;;;24.02;7.85;;;;;;;-144.57;100.00;62443.72;5032279;28;20041;-60
2023/12/15 06:27:03;;;;;;;30.05;8.15;;;;;;;-144.57;100.00;62443.72;5031305;28;20447;-59
2023/12/15 06:29:29;;;;;;;31.40;9.07;;;;;;;-144.57;100.00;62443.72;5029724;28;20418;-62
2023/12/15 06:31:55;;;;;;;31.90;8.88;;;;;;;-144.57;100.00;62443.72;5016945;28;20033;-63
2023/12/15 06:34:21;;;;;;;23.83;8.73;;;;;;;-144.57;100.00;62443.72;5033016;28;20041;-62
2023/12/15 06:36:47;;;;;;;17.70;7.40;;;;;;;-144.57;100.00;62443.72;4993336;28;20038;-62
2023/12/15 06:39:13;;;;;;;24.60;9.60;;;;;;;-144.57;100.00;62443.72;5027316;28;20034;-62
2023/12/15 06:41:39;;;;;;;31.27;9.70;;;;;;;-144.57;100.00;62443.72;5015202;28;20415;-62
2023/12/15 06:44:06;;;;;;;24.65;9.38;;;;;;;-144.57;100.00;62443.72;5031928;28;20046;-60
2023/12/15 06:46:36;;;;;;;26.30;8.65;;;;;;;-144.57;100.00;62443.72;5014192;28;20033;-62
2023/12/15 06:49:02;;;;;;;26.63;8.55;;;;;;;-144.57;100.00;62443.72;5029463;28;20033;-62
2023/12/15 06:51:29;;;;;;;24.67;8.98;;;;;;;-144.57;100.00;62443.72;5006462;28;20064;-62
2023/12/15 06:53:55;;;;;;;29.80;9.23;;;;;;;-144.57;100.00;62443.72;5031213;28;20119;-62
2023/12/15 06:56:21;;;;;;;27.88;9.70;;;;;;;-144.57;100.00;62443.72;5029962;28;20657;-61
2023/12/15 06:58:46;;;;;;;32.65;9.95;;;;;;;-144.57;100.00;62443.72;5030033;28;20399;-61
2023/12/15 07:01:13;;;;;;;36.90;10.00;;;;;;;-144.57;100.00;62443.72;5033834;28;20474;-63
2023/12/15 07:03:40;;;;;;;31.95;10.10;;;;;;;-144.57;100.00;62443.72;5033643;28;20044;-61
2023/12/15 07:06:06;;;;;;;29.48;10.30;;;;;;;-144.57;100.00;62443.72;5033604;28;20053;-63
2023/12/15 07:08:32;;;;;;;30.08;9.27;;;;;;;-144.57;100.00;62443.72;5031650;28;20045;-61
2023/12/15 07:10:58;;;;;;;29.48;11.60;;;;;;;-144.57;100.00;62443.72;5033903;28;20037;-61
2023/12/15 07:13:24;;;;;;;32.97;11.38;;;;;;;-144.57;100.00;62443.72;5033563;28;20041;-63
2023/12/15 07:15:50;;;;;;;42.65;11.75;;;;;;;-144.57;100.00;62443.72;5032431;28;20446;-63
2023/12/15 07:18:16;;;;;;;28.45;10.77;;;;;;;-144.57;100.00;62443.72;5033413;28;20051;-62
2023/12/15 07:20:42;;;;;;;29.05;11.45;;;;;;;-144.57;100.00;62443.72;5033825;28;20038;-63
2023/12/15 07:23:07;;;;;;;31.42;10.25;;;;;;;-144.57;100.00;62443.72;5032336;28;20049;-62
2023/12/15 07:25:33;;;;;;;22.42;8.93;;;;;;;-144.57;100.00;62443.72;5034251;28;20041;-63
2023/12/15 07:27:59;;;;;;;33.25;10.20;;;;;;;-144.57;100.00;62443.72;5026898;28;20050;-61
2023/12/15 07:30:25;;;;;;;34.53;11.40;;;;;;;-144.57;100.00;62443.72;5016255;28;20050;-61
2023/12/15 07:32:51;;;;;;;36.53;11.00;;;;;;;-144.57;100.00;62443.72;5013158;28;20099;-62
2023/12/15 07:35:17;;;;;;;30.17;10.98;;;;;;;-144.57;100.00;62443.72;5028667;28;20041;-66
2023/12/15 07:37:42;;;;;;;30.85;11.38;;;;;;;-144.57;100.00;62443.72;5045335;28;20115;-61
2023/12/15 07:40:09;;;;;;;30.35;11.45;;;;;;;-144.57;100.00;62443.72;5035637;28;20064;-62
2023/12/15 07:42:36;;;;;;;38.75;11.63;;;;;;;-144.57;100.00;62443.72;4991162;28;20269;-60
2023/12/15 07:45:02;;;;;;;27.25;10.73;;;;;;;-144.57;100.00;62443.72;5015770;28;20048;-62
2023/12/15 07:47:31;;;;;;;33.35;11.32;;;;;;;-144.57;100.00;62443.72;5031203;28;20073;-59
2023/12/15 07:49:57;;;;;;;31.33;11.10;;;;;;;-144.57;100.00;62443.72;5026377;28;20133;-61
2023/12/15 07:52:24;;;;;;;28.60;9.95;;;;;;;-144.57;100.00;62443.72;5031923;28;20116;-61
2023/12/15 07:54:50;;;;;;;26.45;9.50;;;;;;;-144.57;100.00;62443.72;5032965;28;20103;-62
2023/12/15 07:57:16;;;;;;;32.38;11.52;;;;;;;-144.57;100.00;62443.72;5032033;28;20041;-61
2023/12/15 07:59:42;;;;;;;27.23;11.23;;;;;;;-144.57;100.00;62443.72;5032483;28;20045;-60
2023/12/15 08:02:08;;;;;;;33.72;11.88;;;;;;;-144.57;100.00;62443.72;5032417;28;20044;-67
2023/12/15 08:04:34;;;;;;;29.90;10.52;;;;;;;-144.57;100.00;62443.72;5031335;28;20548;-60
2023/12/15 08:06:59;;;;;;;28.70;11.73;;;;;;;-144.57;100.00;62443.72;5031196;28;20540;-60
2023/12/15 08:09:25;;;;;;;36.80;10.90;;;;;;;-144.57;100.00;62443.72;5032254;28;20047;-61
2023/12/15 08:11:51;;;;;;;29.45;10.85;;;;;;;-144.57;100.00;62443.72;4998480;28;20045;-60
2023/12/15 08:14:17;;;;;;;29.58;10.32;;;;;;;-144.57;100.00;62443.72;5031334;28;20037;-62
2023/12/15 08:16:43;;;;;;;28.65;10.38;;;;;;;-144.57;100.00;62443.72;5031926;28;20080;-61
2023/12/15 08:19:09;;;;;;;28.52;9.65;;;;;;;-144.57;100.00;62443.72;5026811;28;20042;-59
2023/12/15 08:21:35;;;;;;;26.55;10.93;;;;;;;-144.57;100.00;62443.72;4980366;28;20076;-62
2023/12/15 08:24:01;;;;;;;33.42;12.18;;;;;;;-144.57;100.00;62443.72;5031242;28;20065;-60
2023/12/15 08:26:28;;;;;;;37.13;10.48;;;;;;;-144.57;100.00;62443.72;5030376;28;20121;-62
2023/12/15 08:28:54;;;;;;;28.50;11.40;;;;;;;-144.57;100.00;62443.72;5030935;28;20037;-58
2023/12/15 08:31:21;;;;;;;26.15;10.18;;;;;;;-144.57;100.00;62443.72;5030663;28;20052;-60
2023/12/15 08:33:47;;;;;;;33.03;11.35;;;;;;;-144.57;100.00;62443.72;5032174;28;20049;-61
2023/12/15 08:36:13;;;;;;;31.88;11.15;;;;;;;-144.57;100.00;62443.72;5031743;28;20095;-63
2023/12/15 08:38:39;;;;;;;30.23;10.60;;;;;;;-144.57;100.00;62443.72;5031504;28;20556;-62
2023/12/15 08:41:06;;;;;;;30.95;10.57;;;;;;;-144.57;100.00;62443.72;5034156;28;20055;-61
2023/12/15 08:43:32;;;;;;;42.55;11.93;;;;;;;-144.57;100.00;62443.72;4997699;28;20045;-61
2023/12/15 08:45:58;;;;;;;30.35;10.55;;;;;;;-144.57;100.00;62443.72;5030582;28;20045;-61
2023/12/15 08:48:24;;;;;;;27.08;10.70;;;;;;;-144.57;100.00;62443.72;5013833;28;20095;-61
2023/12/15 08:50:50;;;;;;;28.83;11.10;;;;;;;-144.57;100.00;62443.72;5024436;28;20541;-62
2023/12/15 08:53:18;;;;;;;31.30;10.65;;;;;;;-144.57;100.00;62443.72;5019806;28;20081;-62
2023/12/15 08:55:44;;;;;;;36.83;9.30;;;;;;;-144.57;100.00;62443.72;5011648;28;20480;-62
2023/12/15 08:58:10;;;;;;;35.85;10.80;;;;;;;-144.57;100.00;62443.72;5020185;28;20045;-60
2023/12/15 09:00:37;;;;;;;26.85;9.55;;;;;;;-144.57;100.00;62443.72;5017102;28;20041;-65
2023/12/15 09:03:03;;;;;;;40.08;10.10;;;;;;;-144.57;100.00;62443.72;5025512;28;20041;-61
2023/12/15 09:05:31;;;;;;;30.63;10.18;;;;;;;-144.57;100.00;62443.72;5031487;28;20049;-58
2023/12/15 09:07:58;;;;;;;26.45;9.32;;;;;;;-144.57;100.00;62443.72;5028676;28;20033;-61
2023/12/15 09:10:25;;;;;;;29.02;10.20;;;;;;;-144.57;100.00;62443.72;5033675;28;20033;-60
2023/12/15 09:12:51;;;;;;;29.30;10.25;;;;;;;-144.57;100.00;62443.72;5028710;28;20052;-61
2023/12/15 09:15:17;;;;;;;25.38;10.73;;;;;;;-144.57;100.00;62443.72;5031296;28;20045;-63
2023/12/15 09:17:43;;;;;;;19.48;9.05;;;;;;;-144.57;100.00;62443.72;5029688;28;20049;-61
2023/12/15 09:20:10;;;;;;;31.33;9.52;;;;;;;-144.57;100.00;62443.72;5031260;28;20045;-61
2023/12/15 09:22:37;;;;;;;34.33;9.00;;;;;;;-144.57;100.00;62443.72;5013343;28;20098;-60
2023/12/15 09:25:04;;;;;;;28.40;9.07;;;;;;;-144.57;100.00;62443.72;5031393;28;20045;-61
2023/12/15 09:27:30;;;;;;;32.53;9.82;;;;;;;-144.57;100.00;62443.72;5029277;28;20046;-62
2023/12/15 09:29:56;;;;;;;28.88;9.32;;;;;;;-144.57;100.00;62443.72;5030043;28;20095;-62
2023/12/15 09:32:21;;;;;;;30.38;10.63;;;;;;;-144.57;100.00;62443.72;5030987;28;20041;-61
2023/12/15 09:34:47;;;;;;;26.27;9.80;;;;;;;-144.57;100.00;62443.72;5031173;28;20049;-62
2023/12/15 09:37:13;;;;;;;27.98;10.68;;;;;;;-144.57;100.00;62443.72;5028396;28;20041;-61
2023/12/15 09:39:39;;;;;;;35.15;10.90;;;;;;;-144.57;100.00;62443.72;5033746;28;20052;-62
2023/12/15 09:42:05;;;;;;;27.60;11.10;;;;;;;-144.57;100.00;62443.72;5033668;28;20087;-60
2023/12/15 09:44:31;;;;;;;31.42;9.68;;;;;;;-144.57;100.00;62443.72;5035012;28;20060;-61
2023/12/15 09:46:58;;;;;;;25.90;10.27;;;;;;;-144.57;100.00;62443.72;5034940;28;20037;-62
2023/12/15 09:49:25;;;;;;;31.15;9.45;;;;;;;-144.57;100.00;62443.72;5023828;28;20053;-61
2023/12/15 09:51:52;;;;;;;29.05;9.75;;;;;;;-144.57;100.00;62443.72;5033799;28;20494;-62
2023/12/15 09:54:19;;;;;;;25.85;9.45;;;;;;;-144.57;100.00;62443.72;5033811;28;20075;-62
2023/12/15 09:56:46;;;;;;;33.75;10.60;;;;;;;-144.57;100.00;62443.72;5032977;28;20065;-62
2023/12/15 09:59:13;;;;;;;32.80;10.10;;;;;;;-144.57;100.00;62443.72;5018671;28;20041;-60
2023/12/15 10:01:39;;;;;;;32.30;10.48;;;;;;;-144.57;100.00;62443.72;5016660;28;20053;-63
2023/12/15 10:04:05;;;;;;;32.15;9.90;;;;;;;-144.57;100.00;62443.72;5034539;28;20045;-62
2023/12/15 10:06:37;;;;;;;28.13;9.68;;;;;;;-144.57;100.00;62443.72;5030632;28;20041;-63
2023/12/15 10:09:15;;;;;;;34.65;10.23;;;;;;;-144.57;100.00;62443.72;5015848;28;20045;-62
2023/12/15 10:11:44;;;;;;;30.83;9.90;;;;;;;-144.57;100.00;62443.72;5032571;28;20041;-61
2023/12/15 10:14:11;;;;;;;32.80;9.52;;;;;;;-144.57;100.00;62443.72;5031715;28;20076;-61
2023/12/15 10:16:37;;;;;;;30.55;10.43;;;;;;;-144.57;100.00;62443.72;5033903;28;20180;-62
2023/12/15 10:19:05;;;;;;;26.23;9.93;;;;;;;-144.57;100.00;62443.72;5034083;28;20136;-60
2023/12/15 10:21:32;;;;;;;28.27;9.30;;;;;;;-144.57;100.00;62443.72;5032617;28;20041;-61
2023/12/15 10:23:59;;;;;;;25.90;10.15;;;;;;;-144.57;100.00;62443.72;5034405;28;20047;-63
2023/12/15 10:26:28;;;;;;;21.27;9.07;;;;;;;-144.57;100.00;62443.72;5025836;28;20107;-62
2023/12/15 10:28:56;;;;;;;25.65;9.13;;;;;;;-144.57;100.00;62443.72;5034163;28;20042;-61
2023/12/15 10:31:26;;;;;;;24.25;8.43;;;;;;;-144.57;100.00;62443.72;5030149;28;20525;-65
2023/12/15 10:33:52;;;;;;;29.30;9.05;;;;;;;-144.57;100.00;62443.72;5014249;28;20069;-61
2023/12/15 10:36:18;;;;;;;22.50;8.15;;;;;;;-144.57;100.00;62443.72;5033870;28;20073;-62
2023/12/15 10:38:44;;;;;;;25.40;9.25;;;;;;;-144.57;100.00;62443.72;5033344;28;20048;-62
2023/12/15 10:41:11;;;;;;;21.95;8.20;;;;;;;-144.57;100.00;62443.72;5016346;28;20107;-62
2023/12/15 10:43:38;;;;;;;24.83;8.23;;;;;;;-144.57;100.00;62443.72;5033564;28;20104;-60
2023/12/15 10:46:08;;;;;;;30.42;9.93;;;;;;;-144.57;100.00;62443.72;5033390;28;20053;-63
2023/12/15 10:48:34;;;;;;;25.35;8.73;;;;;;;-144.57;100.00;62443.72;5031879;28;20045;-63
2023/12/15 10:51:00;;;;;;;25.27;8.70;;;;;;;-144.57;100.00;62443.72;5024418;28;20523;-62
2023/12/15 10:53:26;;;;;;;19.63;8.48;;;;;;;-144.57;100.00;62443.72;5034179;28;20128;-62